Potash Point, Vermont
Current Conditions -  °F | °C
As of 5:15 PM on Sunday 21 Dec 2014 (Local Time) from K6B0 Reporting Station
Overcast Overcast  
Wind Chill: 26°   Ceiling: 3200
Heat Index: 26°   Visibility: 10mi
Dew Point: 21°   Wind: 0mph
Humidity: 84%   Direction: NA
Pressure: 30.33"   Gusts: NA
Location:  44.0804°N, 73.3324°W
Report Text: K6B0 212215Z AUTO 00000KT 10SM SCT023 OVC032 M03/M06 A3033 RMK AO2 T10351059
Loading
Personal Weather Stations






























Interactive Weather Map New forecast layout! Learn more

10-Day Weather Forecast

Advertisements
Track Severe Weather on mobile